Time;durP1;ratioP1;P1;durP2;ratioP2;P2;SDS_P1;SDS_P2;PMS_P1;PMS_P2;Temp;Humidity;BMP_temperature;BMP_pressure;BME280_temperature;BME280_humidity;BME280_pressure;Samples;Min_cycle;Max_cycle;Signal;HPM_P1;HPM_P2
2024/04/02 00:00:11;;;;;;;39.95;7.65;;;;;;;;;;10372266;28;20515;-62
2024/04/02 00:05:08;;;;;;;36.25;7.07;;;;;;;;;;10370333;28;20501;-62
2024/04/02 00:10:06;;;;;;;32.90;7.15;;;;;;;;;;10370545;28;20075;-62
2024/04/02 00:15:05;;;;;;;29.88;6.85;;;;;;;;;;10373555;28;20080;-62
2024/04/02 00:20:04;;;;;;;32.92;7.15;;;;;;;;;;10371307;28;20082;-63
2024/04/02 00:25:01;;;;;;;28.42;7.45;;;;;;;;;;10370766;28;20477;-64
2024/04/02 00:29:59;;;;;;;23.10;6.50;;;;;;;;;;10371297;28;20067;-62
2024/04/02 00:34:58;;;;;;;29.05;6.10;;;;;;;;;;10370163;28;20367;-62
2024/04/02 00:39:59;;;;;;;22.27;6.25;;;;;;;;;;10357244;28;20105;-62
2024/04/02 00:44:57;;;;;;;29.80;7.30;;;;;;;;;;10369720;28;20130;-62
2024/04/02 00:49:54;;;;;;;35.53;9.82;;;;;;;;;;10371386;28;20060;-62
2024/04/02 00:54:55;;;;;;;23.88;8.75;;;;;;;;;;10372015;28;20072;-62
2024/04/02 00:59:52;;;;;;;23.77;7.32;;;;;;;;;;10368443;28;20070;-63
2024/04/02 01:04:50;;;;;;;32.83;7.07;;;;;;;;;;10370628;28;20467;-63
2024/04/02 01:09:47;;;;;;;25.23;6.95;;;;;;;;;;10370218;28;20082;-64
2024/04/02 01:14:46;;;;;;;34.97;8.02;;;;;;;;;;10369428;28;20469;-63
2024/04/02 01:19:44;;;;;;;29.02;8.05;;;;;;;;;;10369388;28;20068;-63
2024/04/02 01:24:44;;;;;;;31.17;7.68;;;;;;;;;;10367658;28;20072;-63
2024/04/02 01:29:43;;;;;;;20.45;6.93;;;;;;;;;;10368822;28;20075;-64
2024/04/02 01:34:40;;;;;;;28.55;7.03;;;;;;;;;;10370981;28;20057;-63
2024/04/02 01:39:38;;;;;;;26.65;6.82;;;;;;;;;;10369306;28;20130;-63
2024/04/02 01:44:35;;;;;;;26.00;7.03;;;;;;;;;;10370239;28;20170;-63
2024/04/02 01:49:34;;;;;;;32.03;8.00;;;;;;;;;;10378692;28;20066;-63
2024/04/02 01:54:31;;;;;;;26.50;8.27;;;;;;;;;;10380440;28;20501;-63
2024/04/02 01:59:29;;;;;;;30.35;7.93;;;;;;;;;;10368392;28;20070;-63
2024/04/02 02:04:26;;;;;;;17.95;5.90;;;;;;;;;;10367031;28;20083;-63
2024/04/02 02:09:25;;;;;;;32.95;7.93;;;;;;;;;;10372635;28;20079;-63
2024/04/02 02:14:23;;;;;;;27.05;7.00;;;;;;;;;;10376271;28;20071;-63
2024/04/02 02:19:20;;;;;;;29.30;7.28;;;;;;;;;;10367318;28;20055;-63
2024/04/02 02:24:18;;;;;;;22.27;6.38;;;;;;;;;;10369524;28;20086;-63
2024/04/02 02:29:22;;;;;;;25.48;6.72;;;;;;;;;;10365885;28;20086;-63
2024/04/02 02:34:19;;;;;;;18.00;6.78;;;;;;;;;;10367236;28;20079;-60
2024/04/02 02:39:17;;;;;;;21.10;6.32;;;;;;;;;;10365706;28;20082;-62
2024/04/02 02:44:15;;;;;;;24.27;6.90;;;;;;;;;;10366830;28;20485;-62
2024/04/02 02:49:13;;;;;;;22.70;6.78;;;;;;;;;;10372176;28;20071;-61
2024/04/02 02:54:12;;;;;;;23.55;7.03;;;;;;;;;;10372930;28;20075;-62
2024/04/02 02:59:09;;;;;;;23.63;6.80;;;;;;;;;;10373768;28;20075;-62
2024/04/02 03:04:07;;;;;;;26.52;5.95;;;;;;;;;;10375224;28;20075;-61
2024/04/02 03:09:05;;;;;;;20.30;5.75;;;;;;;;;;10383103;28;20091;-63
2024/04/02 03:14:03;;;;;;;26.13;7.15;;;;;;;;;;10382841;28;20144;-63
2024/04/02 03:19:00;;;;;;;24.90;6.75;;;;;;;;;;10374484;28;20486;-63
2024/04/02 03:23:58;;;;;;;29.67;7.97;;;;;;;;;;10372061;28;20087;-63
2024/04/02 03:28:57;;;;;;;34.97;7.90;;;;;;;;;;10375205;28;20473;-62
2024/04/02 03:33:54;;;;;;;27.48;5.55;;;;;;;;;;10373083;28;20063;-62
2024/04/02 03:38:52;;;;;;;35.88;7.55;;;;;;;;;;10375526;28;20465;-62
2024/04/02 03:43:49;;;;;;;18.35;6.07;;;;;;;;;;10373234;28;20063;-62
2024/04/02 03:48:49;;;;;;;23.02;6.43;;;;;;;;;;10371670;28;20063;-63
2024/04/02 03:53:46;;;;;;;26.63;6.38;;;;;;;;;;10372558;28;20526;-63
2024/04/02 03:58:44;;;;;;;30.63;7.40;;;;;;;;;;10371745;28;20071;-63
2024/04/02 04:03:41;;;;;;;27.25;6.72;;;;;;;;;;10371252;28;20504;-63
2024/04/02 04:08:40;;;;;;;23.60;5.93;;;;;;;;;;10371522;28;20079;-63
2024/04/02 04:13:38;;;;;;;33.67;7.95;;;;;;;;;;10370998;28;20079;-62
2024/04/02 04:18:35;;;;;;;31.77;7.75;;;;;;;;;;10369844;28;20075;-63
2024/04/02 04:23:33;;;;;;;26.60;6.82;;;;;;;;;;10372951;28;20063;-63
2024/04/02 04:28:31;;;;;;;22.98;6.43;;;;;;;;;;10379614;28;20087;-63
2024/04/02 04:33:29;;;;;;;23.02;5.78;;;;;;;;;;10364371;28;20067;-63
2024/04/02 04:38:28;;;;;;;29.20;6.35;;;;;;;;;;10366688;28;20641;-63
2024/04/02 04:43:26;;;;;;;29.33;7.28;;;;;;;;;;10376736;28;20066;-63
2024/04/02 04:48:25;;;;;;;32.65;6.20;;;;;;;;;;10366663;28;20079;-63
2024/04/02 04:53:22;;;;;;;31.42;6.57;;;;;;;;;;10361077;28;20067;-62
2024/04/02 04:58:20;;;;;;;24.80;5.72;;;;;;;;;;10375242;28;20110;-61
2024/04/02 05:03:17;;;;;;;21.48;6.00;;;;;;;;;;10369229;28;20067;-62
2024/04/02 05:08:26;;;;;;;22.63;6.80;;;;;;;;;;10369808;28;20078;-61
2024/04/02 05:13:24;;;;;;;31.38;6.80;;;;;;;;;;10369630;27;20130;-61
2024/04/02 05:18:22;;;;;;;24.70;7.25;;;;;;;;;;10370298;28;20064;-62
2024/04/02 05:23:21;;;;;;;27.02;6.70;;;;;;;;;;10368045;27;20071;-61
2024/04/02 05:28:20;;;;;;;19.75;5.80;;;;;;;;;;10375329;27;20498;-62
2024/04/02 05:33:17;;;;;;;30.77;6.40;;;;;;;;;;10365790;28;20060;-62
2024/04/02 05:38:14;;;;;;;34.95;6.20;;;;;;;;;;10366895;28;20059;-62
2024/04/02 05:43:12;;;;;;;23.60;5.32;;;;;;;;;;10361105;28;20086;-62
2024/04/02 05:48:11;;;;;;;22.75;7.32;;;;;;;;;;10364243;28;20546;-63
2024/04/02 05:53:08;;;;;;;26.58;7.68;;;;;;;;;;10368736;28;20539;-63
2024/04/02 05:58:06;;;;;;;24.60;5.82;;;;;;;;;;10350430;28;20083;-62
2024/04/02 06:03:04;;;;;;;24.08;5.85;;;;;;;;;;10376437;28;20500;-62
2024/04/02 06:08:03;;;;;;;30.80;6.75;;;;;;;;;;10377350;28;20485;-62
2024/04/02 06:13:00;;;;;;;27.67;7.22;;;;;;;;;;10365151;28;20079;-62
2024/04/02 06:17:57;;;;;;;26.38;6.88;;;;;;;;;;10346914;28;20075;-62
2024/04/02 06:22:55;;;;;;;24.77;6.15;;;;;;;;;;10369682;28;20531;-62
2024/04/02 06:27:54;;;;;;;28.52;6.68;;;;;;;;;;10363074;28;20059;-64
2024/04/02 06:32:51;;;;;;;24.17;5.97;;;;;;;;;;10362243;28;20067;-62
2024/04/02 06:37:48;;;;;;;24.17;6.93;;;;;;;;;;10360324;28;20082;-62
2024/04/02 06:42:46;;;;;;;27.98;6.80;;;;;;;;;;10363040;28;20539;-61
2024/04/02 06:47:45;;;;;;;21.23;7.68;;;;;;;;;;10362808;28;20066;-62
2024/04/02 06:52:42;;;;;;;62.03;8.27;;;;;;;;;;10366392;28;20063;-63
2024/04/02 06:57:40;;;;;;;33.83;6.78;;;;;;;;;;10363766;28;20064;-64
2024/04/02 07:02:37;;;;;;;24.58;6.07;;;;;;;;;;10361951;28;20094;-63
2024/04/02 07:07:37;;;;;;;32.40;7.35;;;;;;;;;;10366813;28;20621;-63
2024/04/02 07:12:35;;;;;;;30.33;7.82;;;;;;;;;;10360341;28;20505;-63
2024/04/02 07:17:32;;;;;;;40.00;6.15;;;;;;;;;;10371380;28;20445;-63
2024/04/02 07:22:30;;;;;;;31.40;6.72;;;;;;;;;;10361345;28;20079;-63
2024/04/02 07:27:28;;;;;;;29.17;8.45;;;;;;;;;;10376886;28;20063;-63
2024/04/02 07:32:26;;;;;;;30.42;7.38;;;;;;;;;;10368995;28;20072;-63
2024/04/02 07:37:26;;;;;;;30.67;7.38;;;;;;;;;;10368892;28;20064;-64
2024/04/02 07:42:24;;;;;;;31.48;6.88;;;;;;;;;;10373134;27;20063;-62
2024/04/02 07:47:23;;;;;;;32.92;8.27;;;;;;;;;;10372290;28;20070;-62
2024/04/02 07:52:21;;;;;;;24.13;7.18;;;;;;;;;;10354635;28;20078;-62
2024/04/02 07:57:18;;;;;;;28.65;6.20;;;;;;;;;;10384425;28;20062;-64
2024/04/02 08:02:16;;;;;;;22.55;5.40;;;;;;;;;;10371281;28;20072;-63
2024/04/02 08:07:17;;;;;;;31.30;5.38;;;;;;;;;;10368802;28;20070;-63
2024/04/02 08:12:14;;;;;;;21.17;5.00;;;;;;;;;;10378700;28;20196;-65
2024/04/02 08:17:12;;;;;;;23.13;5.95;;;;;;;;;;10380022;28;20068;-64
2024/04/02 08:22:09;;;;;;;33.42;4.60;;;;;;;;;;10374543;28;20515;-63
2024/04/02 08:27:08;;;;;;;20.55;4.32;;;;;;;;;;10367996;28;20464;-63
2024/04/02 08:32:06;;;;;;;22.75;4.53;;;;;;;;;;10369300;28;20075;-64
2024/04/02 08:37:04;;;;;;;23.98;5.10;;;;;;;;;;10374007;27;20525;-63
2024/04/02 08:42:02;;;;;;;15.93;3.50;;;;;;;;;;10373511;27;20086;-64
2024/04/02 08:47:01;;;;;;;10.82;4.70;;;;;;;;;;10367661;28;20513;-64
2024/04/02 08:51:59;;;;;;;21.20;5.20;;;;;;;;;;10364618;28;20059;-66
2024/04/02 08:56:58;;;;;;;20.88;3.15;;;;;;;;;;10365891;28;20060;-64
2024/04/02 09:01:56;;;;;;;12.05;2.20;;;;;;;;;;10369621;28;20094;-64
2024/04/02 09:06:55;;;;;;;24.45;3.90;;;;;;;;;;10369826;28;20078;-64
2024/04/02 09:11:53;;;;;;;12.57;2.35;;;;;;;;;;10369289;28;20068;-63
2024/04/02 09:16:52;;;;;;;21.88;3.22;;;;;;;;;;10366025;28;20063;-63
2024/04/02 09:21:50;;;;;;;11.88;3.65;;;;;;;;;;10368155;28;20063;-64
2024/04/02 09:26:49;;;;;;;17.45;3.60;;;;;;;;;;10366987;28;20558;-64
2024/04/02 09:31:48;;;;;;;27.85;3.67;;;;;;;;;;10371454;28;20060;-64
2024/04/02 09:36:47;;;;;;;11.90;2.83;;;;;;;;;;10378896;28;20086;-65
2024/04/02 09:41:45;;;;;;;9.82;2.42;;;;;;;;;;10364857;28;20068;-63
2024/04/02 09:46:44;;;;;;;12.95;3.05;;;;;;;;;;10369083;28;20071;-64
2024/04/02 09:51:42;;;;;;;10.35;2.97;;;;;;;;;;10372982;28;20500;-64
2024/04/02 09:56:40;;;;;;;18.50;2.30;;;;;;;;;;10377960;28;20074;-63
2024/04/02 10:01:40;;;;;;;11.20;2.60;;;;;;;;;;10373550;28;20058;-64
2024/04/02 10:06:39;;;;;;;13.88;2.72;;;;;;;;;;10368080;28;20086;-64
2024/04/02 10:11:37;;;;;;;15.95;3.20;;;;;;;;;;10367669;28;20097;-64
2024/04/02 10:16:35;;;;;;;9.02;2.72;;;;;;;;;;10382375;27;20412;-64
2024/04/02 10:21:34;;;;;;;18.65;2.30;;;;;;;;;;10365837;28;20043;-64
2024/04/02 10:26:33;;;;;;;10.10;2.13;;;;;;;;;;10364797;28;20106;-64
2024/04/02 10:31:38;;;;;;;12.75;2.67;;;;;;;;;;10365016;28;20071;-65
2024/04/02 10:36:36;;;;;;;13.50;2.03;;;;;;;;;;10366926;28;20052;-64
2024/04/02 10:41:35;;;;;;;8.90;1.88;;;;;;;;;;10367105;28;20680;-62
2024/04/02 10:46:34;;;;;;;17.70;2.70;;;;;;;;;;10354812;28;20082;-64
2024/04/02 10:51:32;;;;;;;11.43;2.22;;;;;;;;;;10366234;28;20071;-63
2024/04/02 10:56:30;;;;;;;14.27;2.25;;;;;;;;;;10370029;28;20101;-64
2024/04/02 11:01:29;;;;;;;15.40;2.10;;;;;;;;;;10363607;28;20063;-64
2024/04/02 11:06:29;;;;;;;10.95;2.13;;;;;;;;;;10366361;28;20075;-63
2024/04/02 11:11:26;;;;;;;15.15;2.53;;;;;;;;;;10373824;28;20076;-63
2024/04/02 11:16:24;;;;;;;16.85;2.55;;;;;;;;;;10375279;28;20079;-63
2024/04/02 11:21:24;;;;;;;8.73;1.63;;;;;;;;;;10375111;28;20064;-65
2024/04/02 11:26:22;;;;;;;11.73;1.40;;;;;;;;;;10370399;28;20084;-64
2024/04/02 11:31:20;;;;;;;4.35;1.25;;;;;;;;;;10375143;28;20071;-64
2024/04/02 11:36:17;;;;;;;8.88;1.77;;;;;;;;;;10371639;28;20064;-64
2024/04/02 11:41:16;;;;;;;10.88;1.98;;;;;;;;;;10368472;27;20527;-64
2024/04/02 11:46:13;;;;;;;12.38;2.55;;;;;;;;;;10373849;27;20071;-64
2024/04/02 11:51:11;;;;;;;10.07;1.50;;;;;;;;;;10372564;28;20067;-64
2024/04/02 11:56:08;;;;;;;16.83;2.60;;;;;;;;;;10369218;28;20059;-64
2024/04/02 12:01:06;;;;;;;10.77;1.83;;;;;;;;;;10380709;28;20473;-64
2024/04/02 12:06:04;;;;;;;12.45;1.75;;;;;;;;;;10374405;28;20067;-63
2024/04/02 12:11:01;;;;;;;27.73;3.22;;;;;;;;;;10368402;28;20090;-64
2024/04/02 12:15:59;;;;;;;20.92;3.45;;;;;;;;;;10371661;28;20087;-64
2024/04/02 12:21:00;;;;;;;14.80;2.65;;;;;;;;;;10370064;28;20075;-64
2024/04/02 12:25:58;;;;;;;11.85;2.55;;;;;;;;;;10369997;28;20480;-63
2024/04/02 12:30:59;;;;;;;15.95;2.22;;;;;;;;;;10370023;28;20078;-64
2024/04/02 12:35:56;;;;;;;13.32;2.20;;;;;;;;;;10354499;28;20063;-64
2024/04/02 12:40:56;;;;;;;10.07;1.73;;;;;;;;;;10370885;28;20086;-64
2024/04/02 12:45:53;;;;;;;4.95;1.23;;;;;;;;;;10384913;27;20079;-64
2024/04/02 12:50:52;;;;;;;11.75;1.40;;;;;;;;;;10367657;28;20684;-64
2024/04/02 12:55:50;;;;;;;10.05;1.45;;;;;;;;;;10367524;28;20070;-65
2024/04/02 13:00:49;;;;;;;10.90;1.73;;;;;;;;;;10369656;28;20071;-65
2024/04/02 13:05:46;;;;;;;8.57;1.67;;;;;;;;;;10371025;28;20564;-64
2024/04/02 13:10:47;;;;;;;5.10;1.65;;;;;;;;;;10364261;28;20075;-64
2024/04/02 13:15:45;;;;;;;8.45;2.05;;;;;;;;;;10368188;28;20272;-64
2024/04/02 13:20:43;;;;;;;11.75;1.30;;;;;;;;;;10371953;28;20078;-64
2024/04/02 13:25:41;;;;;;;10.95;1.77;;;;;;;;;;10376927;28;20059;-63
2024/04/02 13:30:38;;;;;;;5.80;1.42;;;;;;;;;;10367575;28;20064;-65
2024/04/02 13:35:36;;;;;;;8.13;1.95;;;;;;;;;;10370288;28;20146;-65
2024/04/02 13:40:40;;;;;;;5.03;1.58;;;;;;;;;;10365973;28;20075;-64
2024/04/02 13:45:37;;;;;;;5.90;2.22;;;;;;;;;;10368519;28;20150;-62
2024/04/02 13:50:35;;;;;;;13.48;1.33;;;;;;;;;;10367219;28;20063;-64
2024/04/02 13:55:32;;;;;;;14.95;1.40;;;;;;;;;;10364972;28;20078;-64
2024/04/02 14:00:32;;;;;;;16.30;2.38;;;;;;;;;;10362973;28;20086;-64
2024/04/02 14:05:29;;;;;;;12.00;1.40;;;;;;;;;;10364393;28;20090;-64
2024/04/02 14:10:33;;;;;;;9.02;1.70;;;;;;;;;;10360282;28;20075;-65
2024/04/02 14:15:34;;;;;;;15.50;3.00;;;;;;;;;;10361854;28;20083;-64
2024/04/02 14:20:32;;;;;;;4.25;1.23;;;;;;;;;;10374793;28;20067;-64
2024/04/02 14:25:30;;;;;;;7.95;1.60;;;;;;;;;;10366306;28;20082;-65
2024/04/02 14:30:27;;;;;;;5.20;1.10;;;;;;;;;;10364650;28;20075;-64
2024/04/02 14:35:28;;;;;;;8.45;1.30;;;;;;;;;;10366748;28;20469;-65
2024/04/02 14:40:26;;;;;;;6.57;1.10;;;;;;;;;;10366203;28;20064;-64
2024/04/02 14:45:26;;;;;;;9.13;1.20;;;;;;;;;;10380484;28;20068;-63
2024/04/02 14:50:23;;;;;;;10.27;1.73;;;;;;;;;;10387983;27;20064;-63
2024/04/02 14:55:22;;;;;;;4.35;1.23;;;;;;;;;;10373549;28;20063;-64
2024/04/02 15:00:20;;;;;;;6.20;1.15;;;;;;;;;;10373949;28;20082;-65
2024/04/02 15:05:17;;;;;;;4.90;1.08;;;;;;;;;;10372272;28;20087;-64
2024/04/02 15:10:15;;;;;;;8.25;1.70;;;;;;;;;;10372623;28;20078;-64
2024/04/02 15:15:14;;;;;;;5.00;1.20;;;;;;;;;;10359184;28;20059;-64
2024/04/02 15:20:11;;;;;;;9.45;1.40;;;;;;;;;;10374289;28;20094;-64
2024/04/02 15:25:09;;;;;;;6.38;1.25;;;;;;;;;;10359743;28;20075;-64
2024/04/02 15:30:07;;;;;;;5.30;1.15;;;;;;;;;;10383545;28;20090;-64
2024/04/02 15:35:07;;;;;;;10.38;1.38;;;;;;;;;;10373065;28;21173;-63
2024/04/02 15:40:06;;;;;;;17.75;1.88;;;;;;;;;;10371864;28;20084;-64
2024/04/02 15:45:04;;;;;;;10.30;2.13;;;;;;;;;;10379130;28;20544;-63
2024/04/02 15:50:02;;;;;;;3.40;1.00;;;;;;;;;;10373428;28;20083;-63
2024/04/02 15:55:01;;;;;;;5.88;1.20;;;;;;;;;;10371530;28;20460;-64
2024/04/02 15:59:58;;;;;;;3.22;1.17;;;;;;;;;;10370212;28;20080;-64
2024/04/02 16:04:55;;;;;;;2.38;1.33;;;;;;;;;;10373514;28;20074;-64
2024/04/02 16:09:53;;;;;;;5.07;1.63;;;;;;;;;;10371119;28;20492;-64
2024/04/02 16:14:52;;;;;;;8.70;1.50;;;;;;;;;;10369354;28;20071;-64
2024/04/02 16:19:50;;;;;;;9.13;1.98;;;;;;;;;;10370098;28;20098;-64
2024/04/02 16:24:47;;;;;;;8.70;1.27;;;;;;;;;;10369404;28;20121;-63
2024/04/02 16:29:44;;;;;;;2.60;1.10;;;;;;;;;;10370748;28;20080;-64
2024/04/02 16:34:43;;;;;;;5.60;1.80;;;;;;;;;;10371504;28;20530;-64
2024/04/02 16:39:41;;;;;;;7.07;1.20;;;;;;;;;;10369667;28;20064;-64
2024/04/02 16:44:38;;;;;;;5.22;1.10;;;;;;;;;;10371116;28;20708;-64
2024/04/02 16:49:36;;;;;;;3.03;1.70;;;;;;;;;;10378088;28;20079;-64
2024/04/02 16:54:35;;;;;;;2.40;1.30;;;;;;;;;;10379174;28;20068;-63
2024/04/02 16:59:32;;;;;;;1.45;0.98;;;;;;;;;;10376595;28;20068;-64
2024/04/02 17:04:29;;;;;;;2.95;1.38;;;;;;;;;;10374841;28;20083;-65
2024/04/02 17:09:28;;;;;;;3.08;1.55;;;;;;;;;;10368760;28;20544;-64
2024/04/02 17:14:26;;;;;;;4.88;1.75;;;;;;;;;;10366727;28;20044;-63
2024/04/02 17:19:24;;;;;;;8.50;2.88;;;;;;;;;;10374968;28;20068;-63
2024/04/02 17:24:21;;;;;;;9.02;1.95;;;;;;;;;;10369215;28;20075;-64
2024/04/02 17:29:19;;;;;;;4.35;2.55;;;;;;;;;;10369037;28;20607;-64
2024/04/02 17:34:20;;;;;;;7.78;2.70;;;;;;;;;;10368195;28;20078;-65
2024/04/02 17:39:17;;;;;;;8.27;3.13;;;;;;;;;;10366975;28;20583;-64
2024/04/02 17:44:15;;;;;;;8.50;3.15;;;;;;;;;;10366937;28;20108;-63
2024/04/02 17:49:13;;;;;;;4.93;3.08;;;;;;;;;;10365171;28;20080;-63
2024/04/02 17:54:11;;;;;;;6.07;3.28;;;;;;;;;;10364949;28;20079;-63
2024/04/02 17:59:09;;;;;;;7.32;3.10;;;;;;;;;;10364994;28;20082;-63
2024/04/02 18:04:06;;;;;;;12.23;4.15;;;;;;;;;;10364902;28;20136;-63
2024/04/02 18:09:05;;;;;;;5.65;2.72;;;;;;;;;;10368415;28;20078;-63
2024/04/02 18:14:04;;;;;;;4.72;2.00;;;;;;;;;;10374755;28;20075;-63
2024/04/02 18:19:02;;;;;;;3.92;2.08;;;;;;;;;;10365109;28;20082;-64
2024/04/02 18:24:00;;;;;;;2.20;1.42;;;;;;;;;;10364515;28;20079;-63
2024/04/02 18:29:08;;;;;;;3.20;1.80;;;;;;;;;;10368807;28;20075;-64
2024/04/02 18:34:07;;;;;;;3.25;1.52;;;;;;;;;;10366977;28;20082;-63
2024/04/02 18:39:04;;;;;;;4.57;1.67;;;;;;;;;;10366071;28;20079;-64
2024/04/02 18:44:01;;;;;;;4.80;1.75;;;;;;;;;;10365911;28;20082;-63
2024/04/02 18:48:59;;;;;;;6.35;1.50;;;;;;;;;;10365153;28;20098;-63
2024/04/02 18:53:58;;;;;;;5.78;1.75;;;;;;;;;;10361804;28;20484;-65
2024/04/02 18:58:55;;;;;;;3.60;1.85;;;;;;;;;;10363982;28;20067;-63
2024/04/02 19:03:54;;;;;;;3.38;1.95;;;;;;;;;;10347192;28;20547;-63
2024/04/02 19:08:52;;;;;;;8.07;2.10;;;;;;;;;;10363652;28;20080;-64
2024/04/02 19:13:51;;;;;;;5.30;1.88;;;;;;;;;;10366346;28;20093;-63
2024/04/02 19:18:48;;;;;;;4.65;1.33;;;;;;;;;;10374928;28;20072;-64
2024/04/02 19:23:46;;;;;;;5.65;1.40;;;;;;;;;;10365450;28;20079;-63
2024/04/02 19:28:43;;;;;;;4.72;1.58;;;;;;;;;;10365900;28;20072;-63
2024/04/02 19:33:42;;;;;;;2.17;1.02;;;;;;;;;;10373993;28;20067;-64
2024/04/02 19:38:40;;;;;;;4.40;1.52;;;;;;;;;;10373553;28;20079;-63
2024/04/02 19:43:37;;;;;;;3.30;1.77;;;;;;;;;;10373914;28;20102;-64
2024/04/02 19:48:35;;;;;;;2.80;1.02;;;;;;;;;;10370384;28;20068;-63
2024/04/02 19:53:38;;;;;;;5.53;1.90;;;;;;;;;;10369525;28;20063;-63
2024/04/02 19:58:36;;;;;;;1.90;1.70;;;;;;;;;;10369654;28;20071;-64
2024/04/02 20:03:34;;;;;;;2.17;1.27;;;;;;;;;;10373694;28;20063;-63
2024/04/02 20:08:32;;;;;;;1.17;1.08;;;;;;;;;;10369741;28;20481;-64
2024/04/02 20:13:31;;;;;;;2.80;1.30;;;;;;;;;;10370155;28;20076;-64
2024/04/02 20:18:29;;;;;;;1.92;1.00;;;;;;;;;;10372659;28;20067;-64
2024/04/02 20:23:26;;;;;;;2.17;1.50;;;;;;;;;;10370775;28;20538;-64
2024/04/02 20:28:24;;;;;;;2.80;1.08;;;;;;;;;;10370328;28;20070;-63
2024/04/02 20:33:23;;;;;;;1.20;1.00;;;;;;;;;;10376392;28;20056;-63
2024/04/02 20:38:21;;;;;;;1.38;1.10;;;;;;;;;;10368273;28;20059;-63
2024/04/02 20:43:19;;;;;;;3.20;1.05;;;;;;;;;;10369549;28;20067;-63
2024/04/02 20:48:16;;;;;;;2.55;1.50;;;;;;;;;;10370574;28;20059;-63
2024/04/02 20:53:15;;;;;;;2.60;1.20;;;;;;;;;;10368721;28;20051;-62
2024/04/02 20:58:13;;;;;;;1.30;0.85;;;;;;;;;;10375191;28;20143;-63
2024/04/02 21:03:10;;;;;;;1.45;1.20;;;;;;;;;;10360456;28;20091;-63
2024/04/02 21:08:07;;;;;;;2.40;1.20;;;;;;;;;;10369678;28;20560;-66
2024/04/02 21:13:06;;;;;;;1.33;1.20;;;;;;;;;;10363076;28;20087;-63
2024/04/02 21:18:04;;;;;;;1.55;0.90;;;;;;;;;;10361218;28;20071;-63
2024/04/02 21:23:02;;;;;;;1.45;1.15;;;;;;;;;;10366574;28;20071;-63
2024/04/02 21:27:59;;;;;;;2.45;1.00;;;;;;;;;;10368213;28;20062;-63
2024/04/02 21:32:58;;;;;;;0.90;0.80;;;;;;;;;;10368968;28;20495;-63
2024/04/02 21:37:56;;;;;;;2.90;0.80;;;;;;;;;;10384956;27;20067;-63
2024/04/02 21:42:54;;;;;;;1.83;1.13;;;;;;;;;;10367012;28;20078;-64
2024/04/02 21:48:02;;;;;;;2.10;1.55;;;;;;;;;;10365838;28;20722;-63
2024/04/02 21:53:00;;;;;;;3.45;1.35;;;;;;;;;;10368820;28;20082;-63
2024/04/02 21:57:57;;;;;;;2.70;1.00;;;;;;;;;;10368966;28;20534;-63
2024/04/02 22:02:55;;;;;;;1.27;1.17;;;;;;;;;;10378385;27;20080;-63
2024/04/02 22:07:54;;;;;;;1.02;0.93;;;;;;;;;;10366831;28;20078;-65
2024/04/02 22:12:51;;;;;;;2.72;1.02;;;;;;;;;;10364493;28;20094;-63
2024/04/02 22:17:50;;;;;;;1.60;0.90;;;;;;;;;;10367539;28;20071;-64
2024/04/02 22:22:49;;;;;;;1.08;0.98;;;;;;;;;;10366096;28;20068;-63
2024/04/02 22:27:48;;;;;;;1.20;0.95;;;;;;;;;;10368500;28;20543;-64
2024/04/02 22:32:46;;;;;;;1.73;1.08;;;;;;;;;;10367189;28;20071;-64
2024/04/02 22:37:43;;;;;;;1.27;1.17;;;;;;;;;;10366395;28;20090;-64
2024/04/02 22:42:41;;;;;;;2.17;1.25;;;;;;;;;;10365461;28;20067;-64
2024/04/02 22:47:40;;;;;;;1.40;1.30;;;;;;;;;;10365101;28;20090;-63
2024/04/02 22:52:37;;;;;;;5.05;2.72;;;;;;;;;;10367728;28;20516;-63
2024/04/02 22:57:34;;;;;;;2.33;1.65;;;;;;;;;;10366062;28;20072;-63
2024/04/02 23:02:32;;;;;;;1.70;1.50;;;;;;;;;;10367408;28;20532;-63
2024/04/02 23:07:31;;;;;;;1.20;1.10;;;;;;;;;;10385966;28;20068;-63
2024/04/02 23:12:28;;;;;;;1.88;1.60;;;;;;;;;;10373802;28;20083;-63
2024/04/02 23:17:26;;;;;;;1.52;1.42;;;;;;;;;;10371151;28;20064;-62
2024/04/02 23:22:23;;;;;;;1.35;1.25;;;;;;;;;;10378293;28;20055;-63
2024/04/02 23:27:22;;;;;;;2.45;1.90;;;;;;;;;;10374508;28;20081;-63
2024/04/02 23:32:20;;;;;;;1.67;1.33;;;;;;;;;;10368198;28;20082;-63
2024/04/02 23:37:18;;;;;;;1.75;1.30;;;;;;;;;;10375007;28;20078;-63
2024/04/02 23:42:15;;;;;;;1.80;1.70;;;;;;;;;;10372510;28;20102;-62
2024/04/02 23:47:14;;;;;;;1.70;1.23;;;;;;;;;;10370100;28;20090;-63
2024/04/02 23:52:12;;;;;;;4.10;1.40;;;;;;;;;;10354987;28;20087;-63
2024/04/02 23:57:09;;;;;;;1.60;1.25;;;;;;;;;;10372394;28;20067;-63
